Rs Sentinel — 9HA3754 — position and weather

sailwx.info

Track history (hours):
 
Tides and Currents Weather Stations Pressure Air Temp Water Temp Dewpoint Dewpoint Depression Visibility Wind Speed Wind Dir Waves Ship Positions

Rs Sentinel

Last reported at 2018-May-25 05:00 UTC. Time now 2018-May-25 05:24 UTC.
Position N 53°20' E 007°08'.

Length 70 m; draft 4.8 m.

Type: Other ship. MMSI: 229964000.

Date/timePositionNaut miles runAvg speedWind from/ knotsBaromVisibWave heightAir tempDewpointWater temp
2018-May-25 05:00N 53°20' E 007°08'5 9.8
2018-May-25 04:30N 53°20' E 006°60'811.5
2018-May-25 03:47N 53°27' E 006°53'61 2.6
2018-May-24 04:44N 54°17' E 005°53'0 0.0
2018-May-24 04:30N 54°17' E 005°53'0 0.0
2018-May-24 04:00N 54°17' E 005°53'1 0.1
2018-May-23 18:11N 54°17' E 005°55'0 0.0
2018-May-23 17:59N 54°17' E 005°55'0 0.0
2018-May-23 17:30N 54°17' E 005°55'0 0.0
2018-May-23 14:25N 54°17' E 005°55'1 1.5
2018-May-23 14:00N 54°18' E 005°54'0 0.3
2018-May-23 13:25N 54°18' E 005°53'0 0.0
2018-May-23 13:00N 54°18' E 005°53'0 0.0
2018-May-23 12:30N 54°18' E 005°53'0 0.0
2018-May-23 11:59N 54°18' E 005°53'0 0.0
2018-May-23 11:30N 54°18' E 005°53'2 0.2
2018-May-22 21:26N 54°18' E 005°50'1 2.4
2018-May-22 21:00N 54°18' E 005°51'0 0.1
2018-May-22 19:43N 54°18' E 005°51'1 0.1
2018-May-22 10:24N 54°18' E 005°53'0 0.0
2018-May-22 10:00N 54°18' E 005°53'0 0.0
2018-May-22 09:30N 54°18' E 005°53'0 0.0
2018-May-22 09:00N 54°18' E 005°53'1 1.3
2018-May-22 08:29N 54°18' E 005°55'0 0.0
2018-May-22 07:59N 54°18' E 005°55'  
2018-May-18 16:41N 53°31' E 006°47'212.2
2018-May-18 16:30N 53°29' E 006°49'713.0
2018-May-18 16:00N 53°24' E 006°57'611.9
2018-May-18 15:30N 53°19' E 007°02'6 0.1
2018-May-16 16:03N 53°20' E 007°12'0 0.7
2018-May-16 16:00N 53°20' E 007°12'1 1.1
2018-May-16 15:30N 53°20' E 007°11'2 4.2
2018-May-16 14:57N 53°20' E 007°07'4 4.0
2018-May-16 13:59N 53°20' E 007°00'3 6.9
2018-May-16 13:29N 53°23' E 006°58'35 8.5
2018-May-16 09:23N 53°50' E 006°22'410.6
2018-May-16 09:00N 53°54' E 006°19'31 8.8
2018-May-16 05:32N 54°19' E 005°50'0 0.0
2018-May-16 05:28N 54°19' E 005°50'0 0.0
2018-May-16 02:29N 54°19' E 005°50'0 0.1
2018-May-16 01:37N 54°19' E 005°50'1 2.8
2018-May-16 01:16N 54°20' E 005°50'1 0.2
2018-May-15 19:47N 54°21' E 005°51'0 0.0
2018-May-15 19:14N 54°21' E 005°51'0 0.0
2018-May-15 18:57N 54°21' E 005°51'0 0.1
2018-May-15 18:29N 54°21' E 005°51'0 0.0
2018-May-15 17:43N 54°21' E 005°51'0 0.4
2018-May-15 17:28N 54°21' E 005°51'  
Track history (hours):
 
Tides and Currents Weather Stations Pressure Air Temp Water Temp Dewpoint Dewpoint Depression Visibility Wind Speed Wind Dir Waves Ship Positions

Rs Sentinel

Last reported at 2018-May-25 05:00 UTC. Time now 2018-May-25 05:24 UTC.
Position N 53°20' E 007°08'.

Length 70 m; draft 4.8 m.

Type: Other ship. MMSI: 229964000.

Date/timePositionNaut miles runAvg speedWind from/ knotsBaromVisibWave heightAir tempDewpointWater temp
2018-May-25 05:00N 53°20' E 007°08'5 9.8
2018-May-25 04:30N 53°20' E 006°60'811.5
2018-May-25 03:47N 53°27' E 006°53'61 2.6
2018-May-24 04:44N 54°17' E 005°53'0 0.0
2018-May-24 04:30N 54°17' E 005°53'0 0.0
2018-May-24 04:00N 54°17' E 005°53'1 0.1
2018-May-23 18:11N 54°17' E 005°55'0 0.0
2018-May-23 17:59N 54°17' E 005°55'0 0.0
2018-May-23 17:30N 54°17' E 005°55'0 0.0
2018-May-23 14:25N 54°17' E 005°55'1 1.5
2018-May-23 14:00N 54°18' E 005°54'0 0.3
2018-May-23 13:25N 54°18' E 005°53'0 0.0
2018-May-23 13:00N 54°18' E 005°53'0 0.0
2018-May-23 12:30N 54°18' E 005°53'0 0.0
2018-May-23 11:59N 54°18' E 005°53'0 0.0
2018-May-23 11:30N 54°18' E 005°53'2 0.2
2018-May-22 21:26N 54°18' E 005°50'1 2.4
2018-May-22 21:00N 54°18' E 005°51'0 0.1
2018-May-22 19:43N 54°18' E 005°51'1 0.1
2018-May-22 10:24N 54°18' E 005°53'0 0.0
2018-May-22 10:00N 54°18' E 005°53'0 0.0
2018-May-22 09:30N 54°18' E 005°53'0 0.0
2018-May-22 09:00N 54°18' E 005°53'1 1.3
2018-May-22 08:29N 54°18' E 005°55'0 0.0
2018-May-22 07:59N 54°18' E 005°55'  
2018-May-18 16:41N 53°31' E 006°47'212.2
2018-May-18 16:30N 53°29' E 006°49'713.0
2018-May-18 16:00N 53°24' E 006°57'611.9
2018-May-18 15:30N 53°19' E 007°02'6 0.1
2018-May-16 16:03N 53°20' E 007°12'0 0.7
2018-May-16 16:00N 53°20' E 007°12'1 1.1
2018-May-16 15:30N 53°20' E 007°11'2 4.2
2018-May-16 14:57N 53°20' E 007°07'4 4.0
2018-May-16 13:59N 53°20' E 007°00'3 6.9
2018-May-16 13:29N 53°23' E 006°58'35 8.5
2018-May-16 09:23N 53°50' E 006°22'410.6
2018-May-16 09:00N 53°54' E 006°19'31 8.8
2018-May-16 05:32N 54°19' E 005°50'0 0.0
2018-May-16 05:28N 54°19' E 005°50'0 0.0
2018-May-16 02:29N 54°19' E 005°50'0 0.1
2018-May-16 01:37N 54°19' E 005°50'1 2.8
2018-May-16 01:16N 54°20' E 005°50'1 0.2
2018-May-15 19:47N 54°21' E 005°51'0 0.0
2018-May-15 19:14N 54°21' E 005°51'0 0.0
2018-May-15 18:57N 54°21' E 005°51'0 0.1
2018-May-15 18:29N 54°21' E 005°51'0 0.0
2018-May-15 17:43N 54°21' E 005°51'0 0.4
2018-May-15 17:28N 54°21' E 005°51'  

Dump ship's entire track history